Map

Track Data

SID SEASON NUMBER BASIN SUBBASIN NAME ISO_TIME NATURE LAT LON WMO_WIND WMO_PRES WMO_AGENCY TRACK_TYPE DIST2LAND LANDFALL IFLAG USA_AGENCY USA_ATCF_ID USA_LAT USA_LON USA_RECORD USA_STATUS USA_WIND USA_PRES USA_SSHS USA_R34_NE USA_R34_SE USA_R34_SW USA_R34_NW USA_R50_NE USA_R50_SE USA_R50_SW USA_R50_NW USA_R64_NE USA_R64_SE USA_R64_SW USA_R64_NW USA_POCI USA_ROCI USA_RMW USA_EYE TOKYO_LAT TOKYO_LON TOKYO_GRADE TOKYO_WIND TOKYO_PRES TOKYO_R50_DIR TOKYO_R50_LONG TOKYO_R50_SHORT TOKYO_R30_DIR TOKYO_R30_LONG TOKYO_R30_SHORT TOKYO_LAND CMA_LAT CMA_LON CMA_CAT CMA_WIND CMA_PRES HKO_LAT HKO_LON HKO_CAT HKO_WIND HKO_PRES NEWDELHI_LAT NEWDELHI_LON NEWDELHI_GRADE NEWDELHI_WIND NEWDELHI_PRES NEWDELHI_CI NEWDELHI_DP NEWDELHI_POCI REUNION_LAT REUNION_LON REUNION_TYPE REUNION_WIND REUNION_PRES REUNION_TNUM REUNION_CI REUNION_RMW REUNION_R34_NE REUNION_R34_SE REUNION_R34_SW REUNION_R34_NW REUNION_R50_NE REUNION_R50_SE REUNION_R50_SW REUNION_R50_NW REUNION_R64_NE REUNION_R64_SE REUNION_R64_SW REUNION_R64_NW BOM_LAT BOM_LON BOM_TYPE BOM_WIND BOM_PRES BOM_TNUM BOM_CI BOM_RMW BOM_R34_NE BOM_R34_SE BOM_R34_SW BOM_R34_NW BOM_R50_NE BOM_R50_SE BOM_R50_SW BOM_R50_NW BOM_R64_NE BOM_R64_SE BOM_R64_SW BOM_R64_NW BOM_ROCI BOM_POCI BOM_EYE BOM_POS_METHOD BOM_PRES_METHOD NADI_LAT NADI_LON NADI_CAT NADI_WIND NADI_PRES WELLINGTON_LAT WELLINGTON_LON WELLINGTON_WIND WELLINGTON_PRES DS824_LAT DS824_LON DS824_STAGE DS824_WIND DS824_PRES TD9636_LAT TD9636_LON TD9636_STAGE TD9636_WIND TD9636_PRES TD9635_LAT TD9635_LON TD9635_WIND TD9635_PRES TD9635_ROCI NEUMANN_LAT NEUMANN_LON NEUMANN_CLASS NEUMANN_WIND NEUMANN_PRES MLC_LAT MLC_LON MLC_CLASS MLC_WIND MLC_PRES USA_GUST BOM_GUST BOM_GUST_PER REUNION_GUST REUNION_GUST_PER USA_SEAHGT USA_SEARAD_NE USA_SEARAD_SE USA_SEARAD_SW USA_SEARAD_NW STORM_SPEED STORM_DIR
1935099S10045 1935 22 SI MM NOT_NAMED 1935-04-09 00:00:00 NR -9.50000 44.7000 main 468 387 __________O___ -1 -9.50000 44.7000 1 19 218
1935099S10045 1935 22 SI MM NOT_NAMED 1935-04-09 03:00:00 NR -10.2653 44.0971 main 385 306 __________P___ -1 -10.2653 44.0971 1 22 217
1935099S10045 1935 22 SI MM NOT_NAMED 1935-04-09 06:00:00 TS -11.2305 43.3578 main 306 263 _________OP___ -1 -12.0000 42.8000 TC 25 -10.9740 43.5437 1 18 216
1935099S10045 1935 22 SI MM NOT_NAMED 1935-04-09 09:00:00 TS -11.7271 43.0122 main 263 239 _________PP___ -1 -12.0400 42.8500 TC 25 -11.5706 43.0934 1 10 212
1935099S10045 1935 22 SI MM NOT_NAMED 1935-04-09 12:00:00 TS -12.0429 42.8429 main 239 239 _________OO___ -1 -12.1000 42.9000 TC 25 -12.0000 42.8000 1 5 201
1935099S10045 1935 22 SI MM NOT_NAMED 1935-04-09 15:00:00 TS -12.2105 42.8239 main 240 240 _________PP___ -1 -12.1925 42.9500 TC 25 -12.2285 42.6979 1 3 0
1935099S10045 1935 22 SI MM NOT_NAMED 1935-04-09 18:00:00 TS -12.3035 42.8706 main 252 252 _________OP___ -1 -12.3000 43.0000 TC 25 -12.3069 42.7412 1 2 138
1935099S10045 1935 22 SI MM NOT_NAMED 1935-04-09 21:00:00 TS -12.3534 42.9570 main 261 261 _________PP___ -1 -12.4000 43.0500 TC 25 -12.3069 42.8640 1 2 119
1935099S10045 1935 22 SI MM NOT_NAMED 1935-04-10 00:00:00 TS -12.4000 43.0500 main 272 261 _________OO___ -1 -12.5000 43.1000 TC 25 -12.3000 43.0000 1 2 137
1935099S10045 1935 22 SI MM NOT_NAMED 1935-04-10 03:00:00 TS -12.4886 43.0824 main 271 271 _________PP___ -1 -12.5925 43.1350 TC 25 -12.3846 43.0298 1 2 58
1935099S10045 1935 22 SI MM NOT_NAMED 1935-04-10 06:00:00 TS -12.2789 43.2501 reunion main 295 294 _____O___OP___ -1 -9.80000 44.2000 99 9.90000 -12.7000 43.2000 TC 25 -12.4774 43.0627 1 4 47
1935099S10045 1935 22 SI MM NOT_NAMED 1935-04-10 09:00:00 TS -12.2044 43.3967 main 305 305 _____P___PP___ -1 -10.1741 44.1002 99 -12.8425 43.3275 TC 25 -12.5815 43.1142 1 3 78
1935099S10045 1935 22 SI MM NOT_NAMED 1935-04-10 12:00:00 TS -12.2220 43.5286 main 316 316 _____P___OO___ -1 -10.5472 44.0048 99 -13.0000 43.5000 TC 25 -12.7000 43.2000 1 3 111
1935099S10045 1935 22 SI MM NOT_NAMED 1935-04-10 15:00:00 TS -12.2999 43.6540 main 338 336 _____P___PP___ -1 -10.9181 43.9189 99 -13.1500 43.7000 TC 25 -12.8316 43.3431 1 4 144
1935099S10045 1935 22 SI MM NOT_NAMED 1935-04-10 18:00:00 TS -12.5211 43.7557 main 347 347 _____P___OP___ -1 -11.2856 43.8472 99 -13.3000 43.9000 TC 25 -12.9776 43.5199 1 5 156
1935099S10045 1935 22 SI MM NOT_NAMED 1935-04-10 21:00:00 TS -12.7420 43.8546 main 358 356 _____P___PP___ -1 -11.6487 43.7945 99 -13.4425 44.0575 TC 25 -13.1348 43.7118 1 5 157
1935099S10045 1935 22 SI MM NOT_NAMED 1935-04-11 00:00:00 TS -12.9687 43.9553 main 356 335 _____P___OO___ -1 -12.0062 43.7658 99 -13.6000 44.2000 TC 25 -13.3000 43.9000 1 5 159
1935099S10045 1935 22 SI MM NOT_NAMED 1935-04-11 03:00:00 TS -13.1639 44.0205 main 335 310 _____P___PP___ -1 -12.3570 43.7660 99 -13.7323 44.2980 TC 25 -13.4024 43.9975 1 5 158
1935099S10045 1935 22 SI MM NOT_NAMED 1935-04-11 06:00:00 TS -13.4073 44.1324 reunion main 310 271 _____O___OP___ -1 -12.7000 43.8000 99 9.90000 -14.0000 44.5000 TC 25 -13.5218 44.0971 1 7 152
1935099S10045 1935 22 SI MM NOT_NAMED 1935-04-11 09:00:00 TS -13.7626 44.3533 main 257 208 _____P___PP___ -1 -13.0350 43.8720 99 -14.5476 44.9397 TC 25 -13.7053 44.2481 1 9 147
1935099S10045 1935 22 SI MM NOT_NAMED 1935-04-11 12:00:00 TS -14.1885 44.6611 main 206 157 _____P___OO___ -1 -13.3655 43.9832 99 -15.2000 45.5000 TC 25 -14.0000 44.5000 1 11 143
1935099S10045 1935 22 SI MM NOT_NAMED 1935-04-11 15:00:00 TS -14.6393 45.0284 main 157 92 _____P___PP___ -1 -13.6960 44.1340 99 -15.7574 46.0428 TC 25 -14.4645 44.9083 1 12 141
1935099S10045 1935 22 SI MM NOT_NAMED 1935-04-11 18:00:00 TS -15.1229 45.4488 main 92 24 _____P___OP___ -1 -14.0306 44.3249 99 -16.3000 46.6000 TC 25 -15.0381 45.4215 1 13 140
1935099S10045 1935 22 SI MM NOT_NAMED 1935-04-11 21:00:00 TS -15.6305 45.8995 main 24 0 _____P___PP___ -1 -14.3740 44.5563 99 -16.8498 47.1429 TC 25 -15.6676 45.9992 1 14 139
1935099S10045 1935 22 SI MM NOT_NAMED 1935-04-12 00:00:00 TS -16.1435 46.3763 main 0 0 _____P___OO___ -1 -14.7304 44.8289 99 -17.4000 47.7000 TC 25 -16.3000 46.6000 1 14 137
1935099S10045 1935 22 SI MM NOT_NAMED 1935-04-12 03:00:00 TS -16.6725 46.9038 main 0 0 _____P___PP___ -1 -15.1043 45.1432 99 -18.0028 48.3519 TC 25 -16.9105 47.2161 1 14 136
1935099S10045 1935 22 SI MM NOT_NAMED 1935-04-12 06:00:00 TS -17.1686 47.4126 reunion main 0 0 _____O___OP___ -1 -15.5000 45.5000 99 9.90000 -18.5000 48.9000 TC 25 -17.5059 47.8379 1 13 136
1935099S10045 1935 22 SI MM NOT_NAMED 1935-04-12 09:00:00 TS -17.5760 47.8222 main 0 0 _____P___PP___ -1 -15.9353 45.8975 99 -18.7446 49.1532 TC 25 -18.0482 48.4160 1 11 136
1935099S10045 1935 22 SI MM NOT_NAMED 1935-04-12 12:00:00 TS -17.9308 48.1815 main 0 0 _____P___OO___ -1 -16.3924 46.3446 99 -18.9000 49.3000 TC 25 -18.5000 48.9000 1 10 136
1935099S10045 1935 22 SI MM NOT_NAMED 1935-04-12 15:00:00 TS -18.2791 48.5376 main 0 0 _____P___PP___ -1 -16.8659 46.8312 99 -19.1500 49.5499 TC 25 -18.8214 49.2317 1 9 136
1935099S10045 1935 22 SI MM NOT_NAMED 1935-04-12 18:00:00 TS -18.6014 48.8707 main 0 0 _____P___OP___ -1 -17.3506 47.3473 99 -19.4000 49.8000 TC 25 -19.0536 49.4649 1 9 135
1935099S10045 1935 22 SI MM NOT_NAMED 1935-04-12 21:00:00 TS -18.8943 49.1769 main 10 10 _____P___PP___ -1 -17.8414 47.8827 99 -19.6074 50.0076 TC 25 -19.2342 49.6405 1 8 135
1935099S10045 1935 22 SI MM NOT_NAMED 1935-04-13 00:00:00 TS -19.1777 49.4756 main 47 47 _____P___OO___ -1 -18.3331 48.4269 99 -19.8000 50.2000 TC 25 -19.4000 49.8000 1 8 135
1935099S10045 1935 22 SI MM NOT_NAMED 1935-04-13 03:00:00 TS -19.4457 49.7514 main 86 86 _____P___PP___ -1 -18.8209 48.9696 99 -19.9546 50.3407 TC 25 -19.5616 49.9440 1 8 135
1935099S10045 1935 22 SI MM NOT_NAMED 1935-04-13 06:00:00 TS -19.7412 50.0635 reunion main 128 128 _____O___OP___ -1 -19.3000 49.5000 99 9.90000 -20.2000 50.6000 TC 25 -19.7235 50.0904 1 10 135
1935099S10045 1935 22 SI MM NOT_NAMED 1935-04-13 09:00:00 TS -20.1220 50.4749 main 177 177 _____P___PP___ -1 -19.7793 49.9935 99 -20.6628 51.1395 TC 25 -19.9237 50.2915 1 12 134
1935099S10045 1935 22 SI MM NOT_NAMED 1935-04-13 12:00:00 TS -20.5521 50.9608 main 239 239 _____P___OO___ -1 -20.2562 50.4825 99 -21.2000 51.8000 TC 25 -20.2000 50.6000 1 13 133
1935099S10045 1935 22 SI MM NOT_NAMED 1935-04-13 15:00:00 TS -21.0014 51.4918 main 302 302 _____P___PP___ -1 -20.7259 50.9648 99 -21.6649 52.4152 TC 25 -20.6133 51.0952 1 14 132
1935099S10045 1935 22 SI MM NOT_NAMED 1935-04-13 18:00:00 TS -21.4609 52.0461 main 334 283 _____P___OP___ -1 -21.1837 51.4385 99 -22.1000 53.0000 TC 25 -21.0991 51.6998 1 14 132
1935099S10045 1935 22 SI MM NOT_NAMED 1935-04-13 21:00:00 TS -21.9165 52.5880 main 283 257 _____P___PP___ -1 -21.6247 51.9012 99 -22.5146 53.5080 TC 25 -21.6102 52.3548 1 12 132
1935099S10045 1935 22 SI MM NOT_NAMED 1935-04-14 00:00:00 TS -22.2979 53.0366 main 262 243 _____P___OO___ -1 -22.0443 52.3507 99 -22.9000 54.0000 TC 25 -22.1000 53.0000 1 11 132
1935099S10045 1935 22 SI MM NOT_NAMED 1935-04-14 03:00:00 TS -22.6400 53.4554 main 235 234 _____P___PP___ -1 -22.4376 52.7845 99 -23.2580 54.5343 TC 25 -22.5335 53.5870 1 9 133
1935099S10045 1935 22 SI MM NOT_NAMED 1935-04-14 06:00:00 TS -22.9439 53.7826 reunion main 236 236 _____O___OP___ -1 -22.8000 53.2000 99 9.90000 -23.6000 55.1000 TC 25 -22.9170 54.1204 1 7 140
1935099S10045 1935 22 SI MM NOT_NAMED 1935-04-14 09:00:00 NR -23.1837 53.9580 main 251 251 _____P____P___ -1 -23.1419 53.6278 99 TC -23.2672 54.6185 1 7 141
1935099S10045 1935 22 SI MM NOT_NAMED 1935-04-14 12:00:00 NR -23.4843 54.2520 main 266 266 _____P____O___ -1 -23.4554 54.0400 99 -23.6000 55.1000 1 7 142
1935099S10045 1935 22 SI MM NOT_NAMED 1935-04-14 15:00:00 NR -23.7415 54.4334 main 283 283 _____P________ -1 -23.7415 54.4334 99 1 7 136
1935099S10045 1935 22 SI MM NOT_NAMED 1935-04-14 18:00:00 NR -24.0014 54.8046 main 302 299 _____P________ -1 -24.0014 54.8046 99 1 8 127
1935099S10045 1935 22 SI MM NOT_NAMED 1935-04-14 21:00:00 NR -24.2361 55.1502 main 315 315 _____P________ -1 -24.2361 55.1502 99 1 8 126
1935099S10045 1935 22 SI MM NOT_NAMED 1935-04-15 00:00:00 NR -24.4467 55.4669 main 335 335 _____P________ -1 -24.4467 55.4669 99 7 126
1935099S10045 1935 22 SI MM NOT_NAMED 1935-04-15 03:00:00 NR -24.6343 55.7513 main 358 358 _____P________ -1 -24.6343 55.7513 99 6 126
1935099S10045 1935 22 SI MM NOT_NAMED 1935-04-15 06:00:00 NR -24.8000 56.0000 reunion main 382 382 _____O________ -1 -24.8000 56.0000 99 9.90000 5 127
1935099S10045 1935 22 SI MM NOT_NAMED 1935-04-15 09:00:00 NR -24.9451 56.2111 main 395 395 _____P________ -1 -24.9451 56.2111 99 4 128
1935099S10045 1935 22 SI MM NOT_NAMED 1935-04-15 12:00:00 NR -25.0721 56.3878 main 421 421 _____P________ -1 -25.0721 56.3878 99 4 129
1935099S10045 1935 22 SI MM NOT_NAMED 1935-04-15 15:00:00 NR -25.1836 56.5351 main 434 434 _____P________ -1 -25.1836 56.5351 99 3 131
1935099S10045 1935 22 SI MM NOT_NAMED 1935-04-15 18:00:00 NR -25.2822 56.6577 main 450 450 _____P________ -1 -25.2822 56.6577 99 3 132
1935099S10045 1935 22 SI MM NOT_NAMED 1935-04-15 21:00:00 NR -25.3706 56.7606 main 463 463 _____P________ -1 -25.3706 56.7606 99 2 135
1935099S10045 1935 22 SI MM NOT_NAMED 1935-04-16 00:00:00 NR -25.4513 56.8486 main 474 474 _____P________ -1 -25.4513 56.8486 99 2 136
1935099S10045 1935 22 SI MM NOT_NAMED 1935-04-16 03:00:00 NR -25.5270 56.9268 main 477 477 _____P________ -1 -25.5270 56.9268 99 2 137
1935099S10045 1935 22 SI MM NOT_NAMED 1935-04-16 06:00:00 NR -25.6000 57.0000 reunion main 490 _____O________ -1 -25.6000 57.0000 99 9.90000 2 139

About IBTrACS Database

This database is a web-friendly format of International Best Track Archive for Climate Stewardship (IBTrACS), a global best track data archive curated by NOAA dating back to 1842.

Updated: 2021-12-08